createdAt,value
2017-07-23T00:00:58.289Z,21.53
2017-07-23T00:02:00.178Z,21.50
2017-07-23T00:03:01.993Z,21.43
2017-07-23T00:04:03.824Z,21.37
2017-07-23T00:05:05.711Z,21.37
2017-07-23T00:06:07.587Z,21.35
2017-07-23T00:07:09.484Z,21.43
2017-07-23T00:08:23.653Z,21.43
2017-07-23T00:09:25.546Z,21.32
2017-07-23T00:10:27.424Z,21.34
2017-07-23T00:11:29.316Z,21.29
2017-07-23T00:12:31.153Z,21.28
2017-07-23T00:13:32.980Z,21.28
2017-07-23T00:14:34.852Z,21.19
2017-07-23T00:15:36.746Z,21.06
2017-07-23T00:16:38.622Z,20.88
2017-07-23T00:17:52.789Z,20.80
2017-07-23T00:18:54.689Z,20.74
2017-07-23T00:19:56.580Z,20.74
2017-07-23T00:20:58.453Z,20.72
2017-07-23T00:22:00.285Z,20.77
2017-07-23T00:23:02.093Z,20.92
2017-07-23T00:24:03.989Z,20.88
2017-07-23T00:25:05.889Z,20.99
2017-07-23T00:26:07.779Z,20.99
2017-07-23T00:27:21.904Z,20.97
2017-07-23T00:28:23.785Z,21.01
2017-07-23T00:29:25.677Z,21.07
2017-07-23T00:30:27.547Z,20.97
2017-07-23T00:31:29.374Z,20.99
2017-07-23T00:32:31.183Z,21.03
2017-07-23T00:33:33.057Z,20.99
2017-07-23T00:34:34.948Z,20.99
2017-07-23T00:35:36.817Z,20.89
2017-07-23T00:36:50.963Z,20.97
2017-07-23T00:37:52.857Z,20.99
2017-07-23T00:38:54.731Z,20.94
2017-07-23T00:39:56.605Z,20.99
2017-07-23T00:40:58.416Z,21.07
2017-07-23T00:42:00.247Z,21.01
2017-07-23T00:43:02.119Z,21.12
2017-07-23T00:44:03.994Z,21.16
2017-07-23T00:45:05.865Z,21.07
2017-07-23T00:46:20.033Z,21.10
2017-07-23T00:47:21.928Z,21.14
2017-07-23T00:48:23.801Z,21.10
2017-07-23T00:49:25.676Z,21.10
2017-07-23T00:50:27.481Z,21.06
2017-07-23T00:51:29.293Z,21.13
2017-07-23T00:52:31.184Z,21.14
2017-07-23T00:53:33.065Z,21.13
2017-07-23T00:54:34.955Z,21.06
2017-07-23T00:55:49.102Z,21.12
2017-07-23T00:56:51.000Z,21.12
2017-07-23T00:57:52.896Z,21.12
2017-07-23T00:58:54.789Z,21.09
2017-07-23T00:59:56.598Z,20.98
2017-07-23T01:00:58.432Z,21.07
2017-07-23T01:02:00.326Z,21.07
2017-07-23T01:03:02.219Z,21.07
2017-07-23T01:04:04.090Z,20.98
2017-07-23T01:05:18.226Z,21.01
2017-07-23T01:06:20.098Z,20.91
2017-07-23T01:07:21.969Z,20.87
2017-07-23T01:08:23.833Z,20.77
2017-07-23T01:09:25.647Z,20.79
2017-07-23T01:10:27.474Z,20.80
2017-07-23T01:11:29.350Z,20.82
2017-07-23T01:12:31.244Z,20.69
2017-07-23T01:13:33.121Z,20.73
2017-07-23T01:14:47.287Z,20.70
2017-07-23T01:15:49.184Z,20.69
2017-07-23T01:16:51.057Z,20.74
2017-07-23T01:17:52.950Z,20.77
2017-07-23T01:18:54.784Z,20.74
2017-07-23T01:19:56.616Z,20.67
2017-07-23T01:20:58.486Z,20.70
2017-07-23T01:22:00.359Z,20.67
2017-07-23T01:23:02.249Z,20.62
2017-07-23T01:24:16.398Z,20.70
2017-07-23T01:25:18.295Z,20.61
2017-07-23T01:26:20.194Z,20.58
2017-07-23T01:27:22.062Z,20.59
2017-07-23T01:28:23.872Z,20.59
2017-07-23T01:29:25.702Z,20.55
2017-07-23T01:30:27.573Z,20.58
2017-07-23T01:31:29.466Z,20.58
2017-07-23T01:32:31.336Z,20.39
2017-07-23T01:33:45.475Z,20.42
2017-07-23T01:34:47.353Z,20.39
2017-07-23T01:35:49.248Z,20.41
2017-07-23T01:36:51.145Z,20.42
2017-07-23T01:37:52.976Z,20.41
2017-07-23T01:38:54.802Z,20.41
2017-07-23T01:39:56.676Z,20.32
2017-07-23T01:40:58.549Z,20.29
2017-07-23T01:42:00.415Z,20.31
2017-07-23T01:43:14.554Z,20.39
2017-07-23T01:44:16.432Z,20.42
2017-07-23T01:45:19.303Z,20.38
2017-07-23T01:46:21.193Z,20.39
2017-07-23T01:47:22.997Z,20.50
2017-07-23T01:48:24.825Z,20.39
2017-07-23T01:49:26.695Z,20.43
2017-07-23T01:50:28.567Z,20.57
2017-07-23T01:51:30.459Z,20.57
2017-07-23T01:52:44.665Z,20.55
2017-07-23T01:53:46.517Z,20.58
2017-07-23T01:54:48.391Z,20.57
2017-07-23T01:55:50.278Z,20.57
2017-07-23T01:56:52.085Z,20.55
2017-07-23T01:57:53.895Z,20.52
2017-07-23T01:58:55.793Z,20.54
2017-07-23T01:59:57.677Z,20.55
2017-07-23T02:00:59.552Z,20.58
2017-07-23T02:02:13.765Z,20.50
2017-07-23T02:03:15.662Z,20.54
2017-07-23T02:04:17.550Z,20.54
2017-07-23T02:05:19.419Z,20.51
2017-07-23T02:06:21.245Z,20.54
2017-07-23T02:07:23.053Z,20.42
2017-07-23T02:08:24.949Z,20.32
2017-07-23T02:09:26.835Z,20.38
2017-07-23T02:10:28.703Z,20.36
2017-07-23T02:11:42.848Z,20.35
2017-07-23T02:12:44.716Z,20.35
2017-07-23T02:13:46.587Z,20.33
2017-07-23T02:14:48.481Z,20.14
2017-07-23T02:15:50.310Z,20.11
2017-07-23T02:16:52.138Z,19.94
2017-07-23T02:17:54.010Z,19.87
2017-07-23T02:18:55.901Z,19.71
2017-07-23T02:19:57.769Z,19.62
2017-07-23T02:21:11.963Z,19.56
2017-07-23T02:22:13.857Z,19.56
2017-07-23T02:23:15.747Z,19.58
2017-07-23T02:24:17.612Z,19.59
2017-07-23T02:25:19.424Z,19.63
2017-07-23T02:26:21.252Z,19.65
2017-07-23T02:27:23.141Z,19.77
2017-07-23T02:28:25.013Z,19.74
2017-07-23T02:29:26.888Z,19.88
2017-07-23T02:30:41.048Z,19.87
2017-07-23T02:31:42.927Z,19.74
2017-07-23T02:32:44.804Z,19.77
2017-07-23T02:33:46.692Z,19.80
2017-07-23T02:34:48.497Z,19.86
2017-07-23T02:35:50.306Z,19.84
2017-07-23T02:36:52.196Z,20.01
2017-07-23T02:37:54.061Z,19.98
2017-07-23T02:38:55.933Z,20.02
2017-07-23T02:40:10.058Z,20.10
2017-07-23T02:41:11.923Z,20.02
2017-07-23T02:42:13.799Z,20.02
2017-07-23T02:43:15.686Z,19.95
2017-07-23T02:44:17.511Z,19.95
2017-07-23T02:45:19.314Z,20.01
2017-07-23T02:46:21.189Z,19.98
2017-07-23T02:47:23.059Z,19.99
2017-07-23T02:48:24.951Z,19.95
2017-07-23T02:49:39.115Z,19.98
2017-07-23T02:50:40.985Z,19.99
2017-07-23T02:51:42.865Z,20.05
2017-07-23T02:52:44.746Z,20.06
2017-07-23T02:53:46.557Z,20.11
2017-07-23T02:54:48.386Z,20.13
2017-07-23T02:55:50.234Z,20.23
2017-07-23T02:56:52.039Z,20.16
2017-07-23T02:57:53.849Z,20.14
2017-07-23T02:59:07.987Z,20.24
2017-07-23T03:00:09.880Z,20.20
2017-07-23T03:01:11.752Z,20.24
2017-07-23T03:02:13.642Z,20.10
2017-07-23T03:03:15.452Z,20.20
2017-07-23T03:04:17.258Z,20.13
2017-07-23T03:05:19.148Z,20.08
2017-07-23T03:06:21.022Z,20.10
2017-07-23T03:07:22.919Z,20.20
2017-07-23T03:08:37.078Z,20.21
2017-07-23T03:09:38.955Z,20.17
2017-07-23T03:10:40.846Z,20.24
2017-07-23T03:11:42.720Z,20.17
2017-07-23T03:12:44.548Z,20.11
2017-07-23T03:13:46.355Z,20.24
2017-07-23T03:14:48.229Z,20.23
2017-07-23T03:15:50.099Z,20.18
2017-07-23T03:16:51.978Z,20.24
2017-07-23T03:18:06.119Z,20.23
2017-07-23T03:19:07.988Z,20.13
2017-07-23T03:20:09.860Z,20.20
2017-07-23T03:21:11.759Z,20.23
2017-07-23T03:22:13.590Z,20.26
2017-07-23T03:23:15.417Z,20.21
2017-07-23T03:24:17.294Z,20.17
2017-07-23T03:25:19.183Z,20.23
2017-07-23T03:26:21.055Z,20.24
2017-07-23T03:27:35.199Z,20.21
2017-07-23T03:28:37.096Z,20.24
2017-07-23T03:29:38.992Z,20.21
2017-07-23T03:30:40.885Z,20.24
2017-07-23T03:31:42.694Z,20.24
2017-07-23T03:32:44.503Z,20.28
2017-07-23T03:33:46.375Z,20.50
2017-07-23T03:34:48.251Z,20.62
2017-07-23T03:35:50.130Z,20.73
2017-07-23T03:37:04.297Z,20.80
2017-07-23T03:38:06.167Z,20.97
2017-07-23T03:39:08.061Z,21.06
2017-07-23T03:40:09.936Z,21.12
2017-07-23T03:41:11.745Z,21.35
2017-07-23T03:42:13.577Z,21.53
2017-07-23T03:43:15.452Z,21.65
2017-07-23T03:44:17.326Z,21.79
2017-07-23T03:45:19.200Z,21.79
2017-07-23T03:46:33.371Z,21.92
2017-07-23T03:47:35.269Z,22.05
2017-07-23T03:48:37.164Z,22.14
2017-07-23T03:49:39.063Z,22.24
2017-07-23T03:50:40.890Z,22.33
2017-07-23T03:51:42.702Z,22.33
2017-07-23T03:52:44.602Z,22.58
2017-07-23T03:53:46.503Z,22.67
2017-07-23T03:54:48.397Z,22.76
2017-07-23T03:56:02.544Z,22.97
2017-07-23T03:57:04.412Z,23.02
2017-07-23T03:58:06.288Z,23.25
2017-07-23T03:59:08.186Z,23.47
2017-07-23T04:00:10.023Z,23.54
2017-07-23T04:01:11.856Z,23.68
2017-07-23T04:02:13.732Z,23.93
2017-07-23T04:03:15.629Z,24.10
2017-07-23T04:04:17.502Z,24.22
2017-07-23T04:05:31.698Z,24.43
2017-07-23T04:06:33.567Z,24.71
2017-07-23T04:07:35.446Z,24.84
2017-07-23T04:08:37.342Z,25.13
2017-07-23T04:09:39.153Z,25.25
2017-07-23T04:10:40.991Z,25.50
2017-07-23T04:11:42.888Z,25.57
2017-07-23T04:12:44.766Z,25.62
2017-07-23T04:13:46.668Z,25.64
2017-07-23T04:15:00.825Z,25.64
2017-07-23T04:16:02.693Z,25.69
2017-07-23T04:17:04.596Z,25.69
2017-07-23T04:18:06.489Z,25.72
2017-07-23T04:19:08.300Z,25.64
2017-07-23T04:20:10.117Z,25.83
2017-07-23T04:21:12.014Z,25.90
2017-07-23T04:22:13.890Z,26.12
2017-07-23T04:23:15.773Z,26.18
2017-07-23T04:24:29.916Z,26.20
2017-07-23T04:25:31.791Z,26.32
2017-07-23T04:26:33.670Z,26.23
2017-07-23T04:27:35.553Z,26.20
2017-07-23T04:28:37.365Z,26.26
2017-07-23T04:29:39.176Z,26.43
2017-07-23T04:30:41.080Z,26.66
2017-07-23T04:31:42.983Z,26.92
2017-07-23T04:32:44.866Z,27.04
2017-07-23T04:33:59.016Z,27.29
2017-07-23T04:35:00.918Z,27.60
2017-07-23T04:36:02.820Z,27.77
2017-07-23T04:37:04.692Z,28.03
2017-07-23T04:38:06.512Z,28.22
2017-07-23T04:39:08.347Z,28.44
2017-07-23T04:40:10.224Z,28.76
2017-07-23T04:41:12.100Z,28.90
2017-07-23T04:42:13.982Z,29.16
2017-07-23T04:43:28.159Z,29.43
2017-07-23T04:44:30.059Z,29.55
2017-07-23T04:45:31.938Z,29.53
2017-07-23T04:46:33.841Z,29.64
2017-07-23T04:47:35.680Z,29.71
2017-07-23T04:48:37.491Z,29.87
2017-07-23T04:49:39.384Z,29.85
2017-07-23T04:50:41.250Z,29.70
2017-07-23T04:51:43.129Z,29.57
2017-07-23T04:52:57.304Z,29.18
2017-07-23T04:53:59.187Z,29.09
2017-07-23T04:55:01.082Z,29.06
2017-07-23T04:56:02.961Z,28.98
2017-07-23T04:57:04.779Z,29.16
2017-07-23T04:58:06.616Z,29.37
2017-07-23T04:59:08.496Z,29.63
2017-07-23T05:00:10.400Z,29.87
2017-07-23T05:01:12.303Z,30.20
2017-07-23T05:02:26.455Z,30.57
2017-07-23T05:03:28.337Z,30.80
2017-07-23T05:04:30.237Z,31.01
2017-07-23T05:05:32.119Z,31.19
2017-07-23T05:06:33.934Z,31.26
2017-07-23T05:07:35.773Z,31.29
2017-07-23T05:08:37.655Z,31.28
2017-07-23T05:09:39.560Z,30.98
2017-07-23T05:10:41.459Z,30.54
2017-07-23T05:11:55.620Z,30.16
2017-07-23T05:12:57.520Z,29.79
2017-07-23T05:13:59.424Z,29.41
2017-07-23T05:15:01.341Z,29.23
2017-07-23T05:16:03.138Z,28.89
2017-07-23T05:17:04.953Z,28.40
2017-07-23T05:18:06.852Z,28.09
2017-07-23T05:19:08.734Z,28.02
2017-07-23T05:20:10.633Z,27.54
2017-07-23T05:21:24.784Z,27.17
2017-07-23T05:22:26.685Z,27.19
2017-07-23T05:23:28.580Z,27.22
2017-07-23T05:24:30.485Z,27.14
2017-07-23T05:25:32.328Z,27.04
2017-07-23T05:26:34.140Z,26.82
2017-07-23T05:27:36.044Z,26.85
2017-07-23T05:28:37.920Z,26.84
2017-07-23T05:29:39.819Z,26.95
2017-07-23T05:30:53.974Z,27.32
2017-07-23T05:31:55.846Z,27.59
2017-07-23T05:32:57.724Z,27.55
2017-07-23T05:33:59.628Z,27.57
2017-07-23T05:35:01.459Z,27.49
2017-07-23T05:36:03.279Z,27.41
2017-07-23T05:37:05.152Z,27.39
2017-07-23T05:38:07.028Z,27.28
2017-07-23T05:39:08.931Z,27.29
2017-07-23T05:40:23.103Z,27.25
2017-07-23T05:41:25.015Z,27.09
2017-07-23T05:42:26.896Z,27.03
2017-07-23T05:43:28.776Z,26.87
2017-07-23T05:44:30.612Z,26.87
2017-07-23T05:45:32.428Z,26.88
2017-07-23T05:46:34.322Z,26.84
2017-07-23T05:47:36.158Z,26.76
2017-07-23T05:48:38.030Z,26.70
2017-07-23T05:49:52.178Z,26.81
2017-07-23T05:50:54.056Z,26.75
2017-07-23T05:51:55.928Z,26.72
2017-07-23T05:52:57.799Z,26.69
2017-07-23T05:53:59.614Z,26.65
2017-07-23T05:55:01.448Z,26.55
2017-07-23T05:56:03.323Z,26.39
2017-07-23T05:57:05.197Z,26.28
2017-07-23T05:58:07.092Z,26.20
2017-07-23T05:59:21.244Z,26.02
2017-07-23T06:00:23.146Z,26.07
2017-07-23T06:01:25.044Z,26.28
2017-07-23T06:02:26.922Z,26.29
2017-07-23T06:03:28.741Z,26.37
2017-07-23T06:04:30.580Z,26.48
2017-07-23T06:05:32.479Z,26.50
2017-07-23T06:06:34.354Z,26.73
2017-07-23T06:07:36.235Z,26.87
2017-07-23T06:08:50.381Z,26.85
2017-07-23T06:09:52.268Z,26.94
2017-07-23T06:10:54.160Z,27.00
2017-07-23T06:11:56.041Z,27.04
2017-07-23T06:12:57.879Z,27.13
2017-07-23T06:13:59.695Z,27.34
2017-07-23T06:15:01.595Z,27.27
2017-07-23T06:16:03.473Z,27.39
2017-07-23T06:17:05.342Z,27.36
2017-07-23T06:18:19.519Z,27.34
2017-07-23T06:19:21.408Z,27.36
2017-07-23T06:20:23.289Z,27.44
2017-07-23T06:21:25.164Z,27.62
2017-07-23T06:22:27.002Z,27.74
2017-07-23T06:23:28.841Z,27.78
2017-07-23T06:24:30.738Z,28.00
2017-07-23T06:25:32.614Z,28.14
2017-07-23T06:26:34.492Z,28.33
2017-07-23T06:27:48.645Z,28.39
2017-07-23T06:28:50.540Z,28.37
2017-07-23T06:29:52.428Z,28.43
2017-07-23T06:30:54.321Z,28.49
2017-07-23T06:31:56.146Z,28.61
2017-07-23T06:32:57.984Z,28.40
2017-07-23T06:33:59.841Z,28.52
2017-07-23T06:35:01.657Z,28.62
2017-07-23T06:36:03.474Z,28.70
2017-07-23T06:37:17.644Z,28.86
2017-07-23T06:38:19.526Z,28.88
2017-07-23T06:39:21.418Z,28.86
2017-07-23T06:40:23.298Z,28.86
2017-07-23T06:41:25.116Z,28.76
2017-07-23T06:42:26.929Z,28.86
2017-07-23T06:43:28.801Z,28.80
2017-07-23T06:44:30.681Z,28.73
2017-07-23T06:45:32.578Z,28.64
2017-07-23T06:46:46.728Z,28.54
2017-07-23T06:47:48.612Z,28.48
2017-07-23T06:48:50.511Z,28.55
2017-07-23T06:49:52.413Z,28.62
2017-07-23T06:50:54.250Z,28.68
2017-07-23T06:51:56.068Z,28.67
2017-07-23T06:52:57.971Z,28.80
2017-07-23T06:53:59.845Z,28.88
2017-07-23T06:55:01.744Z,28.98
2017-07-23T06:56:15.902Z,28.92
2017-07-23T06:57:17.794Z,29.09
2017-07-23T06:58:19.678Z,29.19
2017-07-23T06:59:21.610Z,29.24
2017-07-23T07:00:23.450Z,29.15
2017-07-23T07:01:25.296Z,29.11
2017-07-23T07:02:27.175Z,29.02
2017-07-23T07:03:29.045Z,28.98
2017-07-23T07:04:30.945Z,28.98
2017-07-23T07:05:45.122Z,28.78
2017-07-23T07:06:47.026Z,28.86
2017-07-23T07:07:48.928Z,28.90
2017-07-23T07:08:50.833Z,28.71
2017-07-23T07:09:52.652Z,28.66
2017-07-23T07:10:54.487Z,28.73
2017-07-23T07:11:56.772Z,28.88
2017-07-23T07:12:58.614Z,28.86
2017-07-23T07:14:00.497Z,29.04
2017-07-23T07:15:14.674Z,28.98
2017-07-23T07:16:16.573Z,29.04
2017-07-23T07:17:18.453Z,28.96
2017-07-23T07:18:20.383Z,29.04
2017-07-23T07:19:22.179Z,29.09
2017-07-23T07:20:23.998Z,29.11
2017-07-23T07:21:25.873Z,29.12
2017-07-23T07:22:27.751Z,29.12
2017-07-23T07:23:29.633Z,29.12
2017-07-23T07:24:43.787Z,28.92
2017-07-23T07:25:45.694Z,28.90
2017-07-23T07:26:47.589Z,28.67
2017-07-23T07:27:49.463Z,28.44
2017-07-23T07:28:51.301Z,28.41
2017-07-23T07:29:53.154Z,28.41
2017-07-23T07:30:55.022Z,28.52
2017-07-23T07:31:56.902Z,28.71
2017-07-23T07:32:58.826Z,28.80
2017-07-23T07:34:12.994Z,28.98
2017-07-23T07:35:14.883Z,29.18
2017-07-23T07:36:16.763Z,29.27
2017-07-23T07:37:18.708Z,29.49
2017-07-23T07:38:20.582Z,29.51
2017-07-23T07:39:22.438Z,29.57
2017-07-23T07:40:24.336Z,29.64
2017-07-23T07:41:26.323Z,29.79
2017-07-23T07:42:28.222Z,29.80
2017-07-23T07:43:42.375Z,29.89
2017-07-23T07:44:44.327Z,29.94
2017-07-23T07:45:46.236Z,29.90
2017-07-23T07:46:48.122Z,29.92
2017-07-23T07:47:50.008Z,29.80
2017-07-23T07:48:51.875Z,29.64
2017-07-23T07:49:53.756Z,29.63
2017-07-23T07:50:55.654Z,29.60
2017-07-23T07:51:57.534Z,29.45
2017-07-23T07:53:11.722Z,29.30
2017-07-23T07:54:13.611Z,29.18
2017-07-23T07:55:15.491Z,28.98
2017-07-23T07:56:17.387Z,28.89
2017-07-23T07:57:19.211Z,28.98
2017-07-23T07:58:21.052Z,29.08
2017-07-23T07:59:22.949Z,29.14
2017-07-23T08:00:24.828Z,29.12
2017-07-23T08:01:26.732Z,29.11
2017-07-23T08:02:40.881Z,29.08
2017-07-23T08:03:42.765Z,29.14
2017-07-23T08:04:44.666Z,29.08
2017-07-23T08:05:46.569Z,29.08
2017-07-23T08:06:48.404Z,29.04
2017-07-23T08:07:50.218Z,28.95
2017-07-23T08:08:52.099Z,28.98
2017-07-23T08:09:53.973Z,28.92
2017-07-23T08:10:55.854Z,28.88
2017-07-23T08:12:10.046Z,28.74
2017-07-23T08:13:11.924Z,28.76
2017-07-23T08:14:13.828Z,28.68
2017-07-23T08:15:15.731Z,28.58
2017-07-23T08:16:17.612Z,28.36
2017-07-23T08:17:19.408Z,28.24
2017-07-23T08:18:21.306Z,28.11
2017-07-23T08:19:23.187Z,28.03
2017-07-23T08:20:25.106Z,27.99
2017-07-23T08:21:39.283Z,27.94
2017-07-23T08:22:41.160Z,28.00
2017-07-23T08:23:43.036Z,28.03
2017-07-23T08:24:44.914Z,27.97
2017-07-23T08:25:46.753Z,27.82
2017-07-23T08:26:48.592Z,27.81
2017-07-23T08:27:50.496Z,27.78
2017-07-23T08:28:52.375Z,27.72
2017-07-23T08:29:54.273Z,27.70
2017-07-23T08:31:08.451Z,27.69
2017-07-23T08:32:10.365Z,27.65
2017-07-23T08:33:12.240Z,27.69
2017-07-23T08:34:14.141Z,27.85
2017-07-23T08:35:15.982Z,27.92
2017-07-23T08:36:17.824Z,28.03
2017-07-23T08:37:19.695Z,27.88
2017-07-23T08:38:21.570Z,27.85
2017-07-23T08:39:23.460Z,27.81
2017-07-23T08:40:37.619Z,27.84
2017-07-23T08:41:39.559Z,27.85
2017-07-23T08:42:41.430Z,27.82
2017-07-23T08:43:43.307Z,27.92
2017-07-23T08:44:45.122Z,27.82
2017-07-23T08:45:46.938Z,27.78
2017-07-23T08:46:48.820Z,27.69
2017-07-23T08:47:50.716Z,27.74
2017-07-23T08:48:52.597Z,27.75
2017-07-23T08:50:06.803Z,27.88
2017-07-23T08:51:08.645Z,27.85
2017-07-23T08:52:10.552Z,27.78
2017-07-23T08:53:12.433Z,27.88
2017-07-23T08:54:14.280Z,27.75
2017-07-23T08:55:16.103Z,27.69
2017-07-23T08:56:18.009Z,27.62
2017-07-23T08:57:19.870Z,27.51
2017-07-23T08:58:21.782Z,27.29
2017-07-23T08:59:35.956Z,27.13
2017-07-23T09:00:37.987Z,26.99
2017-07-23T09:01:39.911Z,27.03
2017-07-23T09:02:41.790Z,26.82
2017-07-23T09:03:43.673Z,26.73
2017-07-23T09:04:45.488Z,26.58
2017-07-23T09:05:47.365Z,26.58
2017-07-23T09:06:49.266Z,26.55
2017-07-23T09:07:51.207Z,26.58
2017-07-23T09:09:05.361Z,26.54
2017-07-23T09:10:07.282Z,26.55
2017-07-23T09:11:09.201Z,26.58
2017-07-23T09:12:11.081Z,26.48
2017-07-23T09:13:12.916Z,26.48
2017-07-23T09:14:14.732Z,26.35
2017-07-23T09:15:16.607Z,26.29
2017-07-23T09:16:18.490Z,26.32
2017-07-23T09:17:20.369Z,26.39
2017-07-23T09:18:34.514Z,26.57
2017-07-23T09:19:36.398Z,26.54
2017-07-23T09:20:38.281Z,26.57
2017-07-23T09:21:40.176Z,26.45
2017-07-23T09:22:42.015Z,26.18
2017-07-23T09:23:43.861Z,26.07
2017-07-23T09:24:45.763Z,26.07
2017-07-23T09:25:47.638Z,25.91
2017-07-23T09:26:49.523Z,25.61
2017-07-23T09:28:03.754Z,25.47
2017-07-23T09:29:05.638Z,25.42
2017-07-23T09:30:07.517Z,25.39
2017-07-23T09:31:09.392Z,25.36
2017-07-23T09:32:11.207Z,25.43
2017-07-23T09:33:13.025Z,25.42
2017-07-23T09:34:14.932Z,25.25
2017-07-23T09:35:16.828Z,25.20
2017-07-23T09:36:18.712Z,25.13
2017-07-23T09:37:32.878Z,25.18
2017-07-23T09:38:34.756Z,25.39
2017-07-23T09:39:36.637Z,25.52
2017-07-23T09:40:38.608Z,25.43
2017-07-23T09:41:40.423Z,25.39
2017-07-23T09:42:42.261Z,25.36
2017-07-23T09:43:44.145Z,25.38
2017-07-23T09:44:46.052Z,25.28
2017-07-23T09:45:47.947Z,25.27
2017-07-23T09:47:02.198Z,25.18
2017-07-23T09:48:04.093Z,25.09
2017-07-23T09:49:05.984Z,25.14
2017-07-23T09:50:07.865Z,25.27
2017-07-23T09:51:09.676Z,25.35
2017-07-23T09:52:11.962Z,25.47
2017-07-23T09:53:13.939Z,25.60
2017-07-23T09:54:15.812Z,25.76
2017-07-23T09:55:17.704Z,25.85
2017-07-23T09:56:31.877Z,26.09
2017-07-23T09:57:33.774Z,26.20
2017-07-23T09:58:35.653Z,26.43
2017-07-23T09:59:37.528Z,26.51
2017-07-23T10:00:39.349Z,26.51
2017-07-23T10:01:41.186Z,26.45
2017-07-23T10:02:43.064Z,26.21
2017-07-23T10:03:44.964Z,26.06
2017-07-23T10:04:46.843Z,25.90
2017-07-23T10:06:01.020Z,25.77
2017-07-23T10:07:02.897Z,25.82
2017-07-23T10:08:04.809Z,25.67
2017-07-23T10:09:06.676Z,25.55
2017-07-23T10:10:08.492Z,25.54
2017-07-23T10:11:10.306Z,25.60
2017-07-23T10:12:12.183Z,25.58
2017-07-23T10:13:14.067Z,25.64
2017-07-23T10:14:15.940Z,25.67
2017-07-23T10:15:30.117Z,25.76
2017-07-23T10:16:31.993Z,25.75
2017-07-23T10:17:33.908Z,25.60
2017-07-23T10:18:35.773Z,25.38
2017-07-23T10:19:37.624Z,25.35
2017-07-23T10:20:39.455Z,25.42
2017-07-23T10:21:41.336Z,25.42
2017-07-23T10:22:43.211Z,25.43
2017-07-23T10:23:45.092Z,25.45
2017-07-23T10:24:59.268Z,25.72
2017-07-23T10:26:01.171Z,25.88
2017-07-23T10:27:03.070Z,25.91
2017-07-23T10:28:04.958Z,25.85
2017-07-23T10:29:06.796Z,25.83
2017-07-23T10:30:08.643Z,25.88
2017-07-23T10:31:10.484Z,25.94
2017-07-23T10:32:12.369Z,26.05
2017-07-23T10:33:14.248Z,25.82
2017-07-23T10:34:28.398Z,25.72
2017-07-23T10:35:30.277Z,25.79
2017-07-23T10:36:32.157Z,25.43
2017-07-23T10:37:34.058Z,25.38
2017-07-23T10:38:35.875Z,25.38
2017-07-23T10:39:37.694Z,25.33
2017-07-23T10:40:39.569Z,25.35
2017-07-23T10:41:41.457Z,25.40
2017-07-23T10:42:43.368Z,25.47
2017-07-23T10:43:57.511Z,25.75
2017-07-23T10:44:59.417Z,25.94
2017-07-23T10:46:01.321Z,26.02
2017-07-23T10:47:03.225Z,26.06
2017-07-23T10:48:05.076Z,26.26
2017-07-23T10:49:06.910Z,26.43
2017-07-23T10:50:08.815Z,26.57
2017-07-23T10:51:10.719Z,26.67
2017-07-23T10:52:12.628Z,26.75
2017-07-23T10:53:26.834Z,26.67
2017-07-23T10:54:28.715Z,26.70
2017-07-23T10:55:30.594Z,26.85
2017-07-23T10:56:32.709Z,26.89
2017-07-23T10:57:34.524Z,27.02
2017-07-23T10:58:36.337Z,27.39
2017-07-23T10:59:38.219Z,27.63
2017-07-23T11:00:40.106Z,27.93
2017-07-23T11:01:42.006Z,28.04
2017-07-23T11:02:56.195Z,28.34
2017-07-23T11:03:58.103Z,28.58
2017-07-23T11:04:59.977Z,28.48
2017-07-23T11:06:01.858Z,28.71
2017-07-23T11:07:03.677Z,28.88
2017-07-23T11:08:05.516Z,29.08
2017-07-23T11:09:07.395Z,29.31
2017-07-23T11:10:09.301Z,29.58
2017-07-23T11:11:11.201Z,29.63
2017-07-23T11:12:25.360Z,29.41
2017-07-23T11:13:27.241Z,29.45
2017-07-23T11:14:29.124Z,29.28
2017-07-23T11:15:31.012Z,29.18
2017-07-23T11:16:32.851Z,28.96
2017-07-23T11:17:34.710Z,28.86
2017-07-23T11:18:36.618Z,28.92
2017-07-23T11:19:38.527Z,28.90
2017-07-23T11:20:40.559Z,29.08
2017-07-23T11:21:54.686Z,29.30
2017-07-23T11:22:56.591Z,29.31
2017-07-23T11:23:58.483Z,29.58
2017-07-23T11:25:00.387Z,29.52
2017-07-23T11:26:02.226Z,29.37
2017-07-23T11:27:04.045Z,28.98
2017-07-23T11:28:05.951Z,28.62
2017-07-23T11:29:07.830Z,28.37
2017-07-23T11:30:09.735Z,28.34
2017-07-23T11:31:23.888Z,28.56
2017-07-23T11:32:25.779Z,28.68
2017-07-23T11:33:27.675Z,28.70
2017-07-23T11:34:29.584Z,28.67
2017-07-23T11:35:31.467Z,28.68
2017-07-23T11:36:33.323Z,28.86
2017-07-23T11:37:35.264Z,28.85
2017-07-23T11:38:37.205Z,28.81
2017-07-23T11:39:39.147Z,28.85
2017-07-23T11:40:53.378Z,29.04
2017-07-23T11:41:55.276Z,29.16
2017-07-23T11:42:57.218Z,29.31
2017-07-23T11:43:59.166Z,29.23
2017-07-23T11:45:01.044Z,29.11
2017-07-23T11:46:02.923Z,29.06
2017-07-23T11:47:04.868Z,29.00
2017-07-23T11:48:06.767Z,28.89
2017-07-23T11:49:08.685Z,28.66
2017-07-23T11:50:22.902Z,28.29
2017-07-23T11:51:25.778Z,27.93
2017-07-23T11:52:27.693Z,27.60
2017-07-23T11:53:29.614Z,27.17
2017-07-23T11:54:31.462Z,26.89
2017-07-23T11:55:33.323Z,26.40
2017-07-23T11:56:35.259Z,25.83
2017-07-23T11:57:37.175Z,25.57
2017-07-23T11:58:39.093Z,25.32
2017-07-23T11:59:53.300Z,25.15
2017-07-23T12:00:55.206Z,24.90
2017-07-23T12:01:57.142Z,24.81
2017-07-23T12:02:59.086Z,24.73
2017-07-23T12:04:00.967Z,24.78
2017-07-23T12:05:02.853Z,24.69
2017-07-23T12:06:04.764Z,24.78
2017-07-23T12:07:06.720Z,24.98
2017-07-23T12:08:08.645Z,25.03
2017-07-23T12:09:22.953Z,25.03
2017-07-23T12:10:24.908Z,25.10
2017-07-23T12:11:26.886Z,25.14
2017-07-23T12:12:28.820Z,24.90
2017-07-23T12:13:30.698Z,24.96
2017-07-23T12:14:32.577Z,24.91
2017-07-23T12:15:34.519Z,25.00
2017-07-23T12:16:36.429Z,24.96
2017-07-23T12:17:38.341Z,25.02
2017-07-23T12:18:52.619Z,25.06
2017-07-23T12:19:54.562Z,25.06
2017-07-23T12:20:56.552Z,25.14
2017-07-23T12:21:58.490Z,25.33
2017-07-23T12:23:00.361Z,25.45
2017-07-23T12:24:02.243Z,25.45
2017-07-23T12:25:04.222Z,25.54
2017-07-23T12:26:06.172Z,25.50
2017-07-23T12:27:08.140Z,25.30
2017-07-23T12:28:22.356Z,24.88
2017-07-23T12:29:24.282Z,24.96
2017-07-23T12:30:26.183Z,24.91
2017-07-23T12:31:28.119Z,24.88
2017-07-23T12:32:29.965Z,24.91
2017-07-23T12:33:31.819Z,24.99
2017-07-23T12:34:33.713Z,25.20
2017-07-23T12:35:35.625Z,25.33
2017-07-23T12:36:37.522Z,25.69
2017-07-23T12:37:51.676Z,25.97
2017-07-23T12:38:53.580Z,26.15
2017-07-23T12:39:55.581Z,26.51
2017-07-23T12:40:57.555Z,26.82
2017-07-23T12:41:59.405Z,27.27
2017-07-23T12:43:01.274Z,27.60
2017-07-23T12:44:03.148Z,27.90
2017-07-23T12:45:05.054Z,27.75
2017-07-23T12:46:07.008Z,27.74
2017-07-23T12:47:21.195Z,27.59
2017-07-23T12:48:23.093Z,27.43
2017-07-23T12:49:24.994Z,27.25
2017-07-23T12:50:26.890Z,27.44
2017-07-23T12:51:28.692Z,27.57
2017-07-23T12:52:30.520Z,27.70
2017-07-23T12:53:32.395Z,27.66
2017-07-23T12:54:34.275Z,27.67
2017-07-23T12:55:36.174Z,27.69
2017-07-23T12:56:50.332Z,27.67
2017-07-23T12:57:52.207Z,27.74
2017-07-23T12:58:54.108Z,27.96
2017-07-23T12:59:56.002Z,28.11
2017-07-23T13:00:57.821Z,28.27
2017-07-23T13:01:59.636Z,28.27
2017-07-23T13:03:01.518Z,28.40
2017-07-23T13:04:03.423Z,28.61
2017-07-23T13:05:05.293Z,28.64
2017-07-23T13:06:19.449Z,28.62
2017-07-23T13:07:21.354Z,28.67
2017-07-23T13:08:23.232Z,28.68
2017-07-23T13:09:25.120Z,28.73
2017-07-23T13:10:27.297Z,28.85
2017-07-23T13:11:29.305Z,28.95
2017-07-23T13:12:31.199Z,28.98
2017-07-23T13:13:33.101Z,28.81
2017-07-23T13:14:34.984Z,29.00
2017-07-23T13:15:49.131Z,29.19
2017-07-23T13:16:51.008Z,29.52
2017-07-23T13:17:52.909Z,29.71
2017-07-23T13:18:54.791Z,30.05
2017-07-23T13:19:56.628Z,30.19
2017-07-23T13:20:58.450Z,30.00
2017-07-23T13:22:00.355Z,29.78
2017-07-23T13:23:02.231Z,29.85
2017-07-23T13:24:04.109Z,29.90
2017-07-23T13:25:18.282Z,29.70
2017-07-23T13:26:20.186Z,29.30
2017-07-23T13:27:22.072Z,28.76
2017-07-23T13:28:23.980Z,28.12
2017-07-23T13:29:25.822Z,27.74
2017-07-23T13:30:27.630Z,27.63
2017-07-23T13:31:29.541Z,27.74
2017-07-23T13:32:31.415Z,27.72
2017-07-23T13:33:33.321Z,27.99
2017-07-23T13:34:47.479Z,28.09